Saskatoon, Saskatchewan

1:36 PM CST on February 25, 2017 (GMT -0600)
Saskatoon-Diefenbaker International | | Change Station

Elev 1654 ft 52.17 °N, 106.68 °W | Updated 36 minutes ago

Mostly Cloudy
Mostly Cloudy
12 °F
Feels Like 1 °F
N
8
Wind Variable Wind from WSW

Today
High -- | Low -- °F
--% Chance of Precip.
Yesterday
High -- | Low -- °F
Precip. -- in
Pressure 29.95 in
Visibility 15.0 miles
Clouds Mostly Cloudy 2300 ft
Windchill 1 °F
Dew Point 3 °F
Humidity 67%
Rainfall 0.00 in
Snow Depth Not available.
8:00 AM 6:39 PM
Waning Crescent, 1% visible
METAR CYXE 251900Z 24007KT 210V310 15SM BKN023 M11/M16 A2982 RMK SC5 SLP142
Pressure 29.95 in
Visibility 15.0 miles
Clouds Mostly Cloudy 2300 ft
Windchill 1 °F
Dew Point 3 °F
Humidity 67%
Rainfall 0.00 in
Snow Depth Not available.
8:00 AM 6:39 PM
Waning Crescent, 1% visible
METAR CYXE 251900Z 24007KT 210V310 15SM BKN023 M11/M16 A2982 RMK SC5 SLP142

Get Your Daily Forecast Email!

Thanks for signing up!

Be on the lookout for a verification email in your inbox.

You'll start receiving the daily forecast at 8 AM.

×

10-Day Weather Forecast

Almanac

Astronomy

Feb. 25, 2017 Rise Set
Actual Time
Civil Twilight
Nautical Twilight
Astronomical Twilight
Moon
Length of Visible Light
Length of Day
Tomorrow will be .
, % of the Moon is Illuminated

Today's Extremes

Country Highs Country Lows

Community

WunderPhotos

Upload Photos

1,962,540 photos uploaded!

WunderBlog® & News

Nearby

Air Quality

  Air Quality AQ Index Pollutant
Not available.

Snow Depth

Station Depth Elevation

Earthquake Activity

City Distance Mag. Time & Date
Minimum magnitude displayed is 2.5.

Coastal Water Temperatures

Place Temperature

Stations

Nearby Weather Stations

Station Location Temp. Windchill Dew Point Humidity Wind Precip. Elev Updated Type
                   

Watches & Warnings

There are currently no watches in effect.